Kongen — LCDE — position and weather

sailwx.info

Track history (hours):
 
Tides and Currents Weather Stations Pressure Air Temp Water Temp Dewpoint Dewpoint Depression Visibility Wind Speed Wind Dir Waves Ship Positions

Kongen

Last reported at 2014-Oct-23 13:31 UTC. Time now 2014-Oct-23 14:27 UTC.
Position N 59°53' E 010°40'.

Length 50 m; draft 3.2 m.

Type: Passenger vessel. MMSI: 258509000.

Date/timePositionNaut miles runAvg speedWind from/ knotsBaromVisibWave heightAir tempDewpointWater temp
2014-Oct-23 13:31N 59°53' E 010°40'3 3.0
2014-Oct-23 12:33N 59°55' E 010°44'1 0.6
2014-Oct-23 11:32N 59°54' E 010°43'0 0.0
2014-Oct-23 10:33N 59°54' E 010°42'1 0.7
2014-Oct-23 09:33N 59°55' E 010°44'0 0.0
2014-Oct-23 08:33N 59°55' E 010°44'0 0.0
2014-Oct-23 07:33N 59°55' E 010°44'1 1.2
2014-Oct-23 06:33N 59°54' E 010°42'0 0.1
2014-Oct-23 05:33N 59°54' E 010°42'1 1.0
2014-Oct-23 04:22N 59°55' E 010°44'0 0.0
2014-Oct-23 03:25N 59°55' E 010°44'0 0.0
2014-Oct-23 02:22N 59°55' E 010°44'0 0.0
2014-Oct-23 01:28N 59°55' E 010°44'0 0.0
2014-Oct-23 00:16N 59°55' E 010°44'0 0.0
2014-Oct-22 23:31N 59°55' E 010°44'0 0.0
2014-Oct-22 22:31N 59°55' E 010°44'0 0.0
2014-Oct-22 21:28N 59°55' E 010°44'0 0.0
2014-Oct-22 20:28N 59°55' E 010°44'0 0.0
2014-Oct-22 19:31N 59°55' E 010°44'0 0.0
2014-Oct-22 18:31N 59°55' E 010°44'0 0.0
2014-Oct-22 17:31N 59°55' E 010°44'0 0.0
2014-Oct-22 16:33N 59°55' E 010°44'0 0.0
2014-Oct-22 15:34N 59°55' E 010°44'0 0.0
2014-Oct-22 14:33N 59°55' E 010°44'0 0.0
2014-Oct-22 13:34N 59°55' E 010°44'0 0.0
2014-Oct-22 12:33N 59°55' E 010°44'0 0.0
2014-Oct-22 11:33N 59°55' E 010°44'0 0.0
2014-Oct-22 10:33N 59°55' E 010°44'0 0.0
2014-Oct-22 09:32N 59°55' E 010°44'0 0.0
2014-Oct-22 08:32N 59°55' E 010°44'0 0.0
2014-Oct-22 07:25N 59°55' E 010°44'0 0.1
2014-Oct-22 06:33N 59°55' E 010°44'0 0.0
2014-Oct-22 05:33N 59°54' E 010°44'0 0.0
2014-Oct-22 04:33N 59°54' E 010°44'3 0.2
2014-Oct-21 15:30N 59°53' E 010°40'1 0.7
2014-Oct-21 14:26N 59°53' E 010°41'1 0.6
2014-Oct-21 13:30N 59°53' E 010°40'3 2.8
2014-Oct-21 12:32N 59°55' E 010°44'0 0.0
2014-Oct-21 11:33N 59°55' E 010°44'0 0.0
2014-Oct-21 10:33N 59°55' E 010°44'0 0.1
2014-Oct-21 09:33N 59°55' E 010°44'0 0.0
2014-Oct-21 08:33N 59°55' E 010°44'0 0.0
2014-Oct-21 07:33N 59°55' E 010°44'1 1.2
2014-Oct-21 06:33N 59°54' E 010°42'0 0.1
2014-Oct-21 05:33N 59°54' E 010°42'1 1.1
2014-Oct-21 04:30N 59°55' E 010°44'0 0.0
2014-Oct-21 03:33N 59°55' E 010°44'0 0.0
2014-Oct-21 02:30N 59°55' E 010°44'0 0.0
2014-Oct-21 01:33N 59°55' E 010°44'0 0.0
2014-Oct-21 00:21N 59°55' E 010°44'0 0.0
2014-Oct-20 23:24N 59°55' E 010°44'0 0.0
2014-Oct-20 22:24N 59°55' E 010°44'0 0.0
2014-Oct-20 21:21N 59°55' E 010°44'0 0.0
2014-Oct-20 20:27N 59°55' E 010°44'0 0.0
2014-Oct-20 19:27N 59°55' E 010°44'0 0.0
2014-Oct-20 18:30N 59°55' E 010°44'0 0.0
2014-Oct-20 17:30N 59°55' E 010°44'0 0.0
2014-Oct-20 16:32N 59°55' E 010°44'0 0.1
2014-Oct-20 15:33N 59°55' E 010°44'0 0.1
2014-Oct-20 14:33N 59°55' E 010°44'0 0.0
2014-Oct-20 13:33N 59°55' E 010°44'0 0.1
2014-Oct-20 12:33N 59°55' E 010°44'0 0.1
2014-Oct-20 11:33N 59°55' E 010°44'0 0.0
2014-Oct-20 10:33N 59°55' E 010°44'0 0.1
2014-Oct-20 09:32N 59°55' E 010°44'0 0.0
2014-Oct-20 08:32N 59°55' E 010°44'0 0.0
2014-Oct-20 07:29N 59°55' E 010°44'0 0.0
2014-Oct-20 06:33N 59°55' E 010°44'0 0.0
2014-Oct-20 05:33N 59°55' E 010°44'0 0.0
2014-Oct-20 04:33N 59°55' E 010°44'0 0.0
2014-Oct-19 22:33N 59°55' E 010°44'0 0.1
2014-Oct-19 21:34N 59°55' E 010°44'0 0.0
2014-Oct-19 20:33N 59°55' E 010°44'0 0.0
2014-Oct-19 19:33N 59°55' E 010°44'0 0.0
2014-Oct-19 18:33N 59°55' E 010°44'0 0.0
2014-Oct-19 17:33N 59°55' E 010°44'0 0.0
2014-Oct-19 16:33N 59°55' E 010°44'0 0.1
2014-Oct-19 15:33N 59°54' E 010°44'0 0.1
2014-Oct-19 14:33N 59°55' E 010°44'0 0.0
2014-Oct-19 13:33N 59°55' E 010°44'0 0.0
2014-Oct-19 12:28N 59°55' E 010°44'0 0.0
2014-Oct-19 11:28N 59°55' E 010°44'0 0.0
2014-Oct-19 10:28N 59°55' E 010°44'0 0.0
2014-Oct-19 09:31N 59°55' E 010°44'0 0.0
2014-Oct-19 08:28N 59°55' E 010°44'0 0.0
2014-Oct-19 07:31N 59°55' E 010°44'0 0.0
2014-Oct-19 06:31N 59°55' E 010°44'0 0.0
2014-Oct-19 05:31N 59°55' E 010°44'0 0.0
2014-Oct-19 04:31N 59°55' E 010°44'0 0.0
2014-Oct-19 03:22N 59°55' E 010°44'0 0.0
2014-Oct-19 02:23N 59°55' E 010°44'0 0.0
2014-Oct-19 01:33N 59°55' E 010°44'0 0.0
2014-Oct-19 00:33N 59°55' E 010°44'0 0.0
2014-Oct-18 23:33N 59°55' E 010°44'0 0.0
2014-Oct-18 22:33N 59°55' E 010°44'0 0.0
2014-Oct-18 21:31N 59°55' E 010°44'0 0.1
2014-Oct-18 20:33N 59°55' E 010°44'0 0.0
2014-Oct-18 19:33N 59°55' E 010°44'0 0.0
2014-Oct-18 18:33N 59°55' E 010°44'0 0.1
2014-Oct-18 17:33N 59°55' E 010°44'0 0.1
2014-Oct-18 16:33N 59°55' E 010°44'0 0.1
2014-Oct-18 15:33N 59°55' E 010°44'0 0.1
2014-Oct-18 14:26N 59°55' E 010°44'0 0.0
2014-Oct-18 13:29N 59°55' E 010°44'0 0.0
2014-Oct-18 12:29N 59°55' E 010°44'0 0.0
2014-Oct-18 11:32N 59°55' E 010°44'0 0.0
2014-Oct-18 10:32N 59°55' E 010°44'0 0.0
2014-Oct-18 09:29N 59°55' E 010°44'0 0.0
2014-Oct-18 08:32N 59°55' E 010°44'0 0.0
2014-Oct-18 07:20N 59°55' E 010°44'0 0.0
2014-Oct-18 06:32N 59°55' E 010°44'0 0.0
2014-Oct-18 05:23N 59°55' E 010°44'0 0.0
2014-Oct-18 04:20N 59°55' E 010°44'0 0.0
2014-Oct-18 03:23N 59°55' E 010°44'0 0.0
2014-Oct-18 02:25N 59°55' E 010°44'0 0.0
2014-Oct-18 01:33N 59°55' E 010°44'0 0.0
2014-Oct-18 00:33N 59°55' E 010°44'0 0.0
2014-Oct-17 23:33N 59°55' E 010°44'0 0.0
2014-Oct-17 22:33N 59°55' E 010°44'0 0.0
2014-Oct-17 21:33N 59°55' E 010°44'0 0.0
2014-Oct-17 20:33N 59°55' E 010°44'0 0.0
2014-Oct-17 19:33N 59°55' E 010°44'0 0.0
2014-Oct-17 18:33N 59°55' E 010°44'2 1.8
2014-Oct-17 17:33N 59°53' E 010°41'1 1.1
2014-Oct-17 16:32N 59°53' E 010°40'0 0.3
2014-Oct-17 15:28N 59°52' E 010°39'2 2.3
2014-Oct-17 14:33N 59°54' E 010°42'1 1.1
2014-Oct-17 13:33N 59°55' E 010°44'0 0.0
2014-Oct-17 12:30N 59°55' E 010°44'0 0.0
2014-Oct-17 11:27N 59°55' E 010°44'0 0.0
2014-Oct-17 10:30N 59°55' E 010°44'0 0.0
2014-Oct-17 09:33N 59°55' E 010°44'0 0.0
2014-Oct-17 08:33N 59°55' E 010°44'0 0.0
2014-Oct-17 07:33N 59°55' E 010°44'2 2.2
2014-Oct-17 06:28N 59°53' E 010°40'1 1.0
2014-Oct-17 05:33N 59°52' E 010°39'0 0.2
2014-Oct-17 04:32N 59°52' E 010°40'0 0.2
2014-Oct-17 03:33N 59°53' E 010°40'0 0.4
2014-Oct-17 02:33N 59°52' E 010°39'0 0.0
2014-Oct-17 01:33N 59°52' E 010°39'0 0.0
2014-Oct-17 00:24N 59°52' E 010°39'0 0.0
2014-Oct-16 23:24N 59°52' E 010°39'0 0.0
2014-Oct-16 22:27N 59°52' E 010°39'0 0.0
2014-Oct-16 20:27N 59°52' E 010°39'0 0.0
2014-Oct-16 18:27N 59°52' E 010°39'0 0.0
2014-Oct-16 17:25N 59°52' E 010°39'0 0.5
2014-Oct-16 16:33N 59°53' E 010°40'0 0.0
2014-Oct-16 15:33N 59°53' E 010°40'1 1.4
2014-Oct-16 14:33N 59°54' E 010°42'1 1.4
2014-Oct-16 13:33N 59°55' E 010°44'0 0.0
2014-Oct-16 12:28N 59°55' E 010°44'0 0.0
2014-Oct-16 11:28N 59°55' E 010°44'0 0.0
2014-Oct-16 10:31N 59°55' E 010°44'0 0.0
2014-Oct-16 09:31N 59°55' E 010°44'0 0.0
2014-Oct-16 08:31N 59°55' E 010°44'0 0.0
2014-Oct-16 07:32N 59°55' E 010°44'3 3.0
2014-Oct-16 06:31N 59°52' E 010°40'0 0.0
2014-Oct-16 05:31N 59°52' E 010°40'0 0.2
2014-Oct-16 04:31N 59°52' E 010°39'0 0.3
2014-Oct-16 03:33N 59°53' E 010°40'0 0.0
2014-Oct-15 17:24N 59°52' E 010°39'1 0.6
2014-Oct-15 16:20N 59°53' E 010°40'0 0.2
2014-Oct-15 15:09N 59°53' E 010°40'1 1.9
2014-Oct-15 14:33N 59°54' E 010°42'1 0.3
2014-Oct-15 10:25N 59°55' E 010°44'0 0.0
2014-Oct-15 09:28N 59°55' E 010°44'0 0.0
2014-Oct-15 07:25N 59°55' E 010°44'3 3.7
2014-Oct-15 06:33N 59°52' E 010°39'0 0.5
2014-Oct-15 05:30N 59°53' E 010°40'0 0.2
2014-Oct-15 04:33N 59°53' E 010°40'0 0.0
2014-Oct-15 03:33N 59°53' E 010°40'0 0.1
2014-Oct-15 00:30N 59°52' E 010°39'0 0.0
2014-Oct-14 22:18N 59°52' E 010°39'0 0.0
2014-Oct-14 20:18N 59°52' E 010°39'0 0.0
2014-Oct-14 17:30N 59°52' E 010°39'0 0.0
2014-Oct-14 16:31N 59°52' E 010°39'0 0.4
2014-Oct-14 15:33N 59°53' E 010°40'2 1.7
2014-Oct-14 14:33N 59°54' E 010°42'1 1.2
2014-Oct-14 13:33N 59°55' E 010°44'0 0.0
2014-Oct-14 11:28N 59°55' E 010°44'0 0.0
2014-Oct-14 08:31N 59°55' E 010°44'0 0.0
2014-Oct-14 07:32N 59°55' E 010°44'2 2.3
2014-Oct-14 06:28N 59°53' E 010°40'0 0.1
2014-Oct-14 05:29N 59°53' E 010°40'1 0.7
2014-Oct-14 04:29N 59°52' E 010°39'0 0.0
2014-Oct-13 17:25N 59°52' E 010°40'1 0.5
2014-Oct-13 16:21N 59°53' E 010°40'1 0.5
2014-Oct-13 15:07N 59°53' E 010°41'1 1.1
2014-Oct-13 14:33N 59°54' E 010°42'  
Track history (hours):
 
Tides and Currents Weather Stations Pressure Air Temp Water Temp Dewpoint Dewpoint Depression Visibility Wind Speed Wind Dir Waves Ship Positions

Kongen

Last reported at 2014-Oct-23 13:31 UTC. Time now 2014-Oct-23 14:27 UTC.
Position N 59°53' E 010°40'.

Length 50 m; draft 3.2 m.

Type: Passenger vessel. MMSI: 258509000.

Date/timePositionNaut miles runAvg speedWind from/ knotsBaromVisibWave heightAir tempDewpointWater temp
2014-Oct-23 13:31N 59°53' E 010°40'3 3.0
2014-Oct-23 12:33N 59°55' E 010°44'1 0.6
2014-Oct-23 11:32N 59°54' E 010°43'0 0.0
2014-Oct-23 10:33N 59°54' E 010°42'1 0.7
2014-Oct-23 09:33N 59°55' E 010°44'0 0.0
2014-Oct-23 08:33N 59°55' E 010°44'0 0.0
2014-Oct-23 07:33N 59°55' E 010°44'1 1.2
2014-Oct-23 06:33N 59°54' E 010°42'0 0.1
2014-Oct-23 05:33N 59°54' E 010°42'1 1.0
2014-Oct-23 04:22N 59°55' E 010°44'0 0.0
2014-Oct-23 03:25N 59°55' E 010°44'0 0.0
2014-Oct-23 02:22N 59°55' E 010°44'0 0.0
2014-Oct-23 01:28N 59°55' E 010°44'0 0.0
2014-Oct-23 00:16N 59°55' E 010°44'0 0.0
2014-Oct-22 23:31N 59°55' E 010°44'0 0.0
2014-Oct-22 22:31N 59°55' E 010°44'0 0.0
2014-Oct-22 21:28N 59°55' E 010°44'0 0.0
2014-Oct-22 20:28N 59°55' E 010°44'0 0.0
2014-Oct-22 19:31N 59°55' E 010°44'0 0.0
2014-Oct-22 18:31N 59°55' E 010°44'0 0.0
2014-Oct-22 17:31N 59°55' E 010°44'0 0.0
2014-Oct-22 16:33N 59°55' E 010°44'0 0.0
2014-Oct-22 15:34N 59°55' E 010°44'0 0.0
2014-Oct-22 14:33N 59°55' E 010°44'0 0.0
2014-Oct-22 13:34N 59°55' E 010°44'0 0.0
2014-Oct-22 12:33N 59°55' E 010°44'0 0.0
2014-Oct-22 11:33N 59°55' E 010°44'0 0.0
2014-Oct-22 10:33N 59°55' E 010°44'0 0.0
2014-Oct-22 09:32N 59°55' E 010°44'0 0.0
2014-Oct-22 08:32N 59°55' E 010°44'0 0.0
2014-Oct-22 07:25N 59°55' E 010°44'0 0.1
2014-Oct-22 06:33N 59°55' E 010°44'0 0.0
2014-Oct-22 05:33N 59°54' E 010°44'0 0.0
2014-Oct-22 04:33N 59°54' E 010°44'3 0.2
2014-Oct-21 15:30N 59°53' E 010°40'1 0.7
2014-Oct-21 14:26N 59°53' E 010°41'1 0.6
2014-Oct-21 13:30N 59°53' E 010°40'3 2.8
2014-Oct-21 12:32N 59°55' E 010°44'0 0.0
2014-Oct-21 11:33N 59°55' E 010°44'0 0.0
2014-Oct-21 10:33N 59°55' E 010°44'0 0.1
2014-Oct-21 09:33N 59°55' E 010°44'0 0.0
2014-Oct-21 08:33N 59°55' E 010°44'0 0.0
2014-Oct-21 07:33N 59°55' E 010°44'1 1.2
2014-Oct-21 06:33N 59°54' E 010°42'0 0.1
2014-Oct-21 05:33N 59°54' E 010°42'1 1.1
2014-Oct-21 04:30N 59°55' E 010°44'0 0.0
2014-Oct-21 03:33N 59°55' E 010°44'0 0.0
2014-Oct-21 02:30N 59°55' E 010°44'0 0.0
2014-Oct-21 01:33N 59°55' E 010°44'0 0.0
2014-Oct-21 00:21N 59°55' E 010°44'0 0.0
2014-Oct-20 23:24N 59°55' E 010°44'0 0.0
2014-Oct-20 22:24N 59°55' E 010°44'0 0.0
2014-Oct-20 21:21N 59°55' E 010°44'0 0.0
2014-Oct-20 20:27N 59°55' E 010°44'0 0.0
2014-Oct-20 19:27N 59°55' E 010°44'0 0.0
2014-Oct-20 18:30N 59°55' E 010°44'0 0.0
2014-Oct-20 17:30N 59°55' E 010°44'0 0.0
2014-Oct-20 16:32N 59°55' E 010°44'0 0.1
2014-Oct-20 15:33N 59°55' E 010°44'0 0.1
2014-Oct-20 14:33N 59°55' E 010°44'0 0.0
2014-Oct-20 13:33N 59°55' E 010°44'0 0.1
2014-Oct-20 12:33N 59°55' E 010°44'0 0.1
2014-Oct-20 11:33N 59°55' E 010°44'0 0.0
2014-Oct-20 10:33N 59°55' E 010°44'0 0.1
2014-Oct-20 09:32N 59°55' E 010°44'0 0.0
2014-Oct-20 08:32N 59°55' E 010°44'0 0.0
2014-Oct-20 07:29N 59°55' E 010°44'0 0.0
2014-Oct-20 06:33N 59°55' E 010°44'0 0.0
2014-Oct-20 05:33N 59°55' E 010°44'0 0.0
2014-Oct-20 04:33N 59°55' E 010°44'0 0.0
2014-Oct-19 22:33N 59°55' E 010°44'0 0.1
2014-Oct-19 21:34N 59°55' E 010°44'0 0.0
2014-Oct-19 20:33N 59°55' E 010°44'0 0.0
2014-Oct-19 19:33N 59°55' E 010°44'0 0.0
2014-Oct-19 18:33N 59°55' E 010°44'0 0.0
2014-Oct-19 17:33N 59°55' E 010°44'0 0.0
2014-Oct-19 16:33N 59°55' E 010°44'0 0.1
2014-Oct-19 15:33N 59°54' E 010°44'0 0.1
2014-Oct-19 14:33N 59°55' E 010°44'0 0.0
2014-Oct-19 13:33N 59°55' E 010°44'0 0.0
2014-Oct-19 12:28N 59°55' E 010°44'0 0.0
2014-Oct-19 11:28N 59°55' E 010°44'0 0.0
2014-Oct-19 10:28N 59°55' E 010°44'0 0.0
2014-Oct-19 09:31N 59°55' E 010°44'0 0.0
2014-Oct-19 08:28N 59°55' E 010°44'0 0.0
2014-Oct-19 07:31N 59°55' E 010°44'0 0.0
2014-Oct-19 06:31N 59°55' E 010°44'0 0.0
2014-Oct-19 05:31N 59°55' E 010°44'0 0.0
2014-Oct-19 04:31N 59°55' E 010°44'0 0.0
2014-Oct-19 03:22N 59°55' E 010°44'0 0.0
2014-Oct-19 02:23N 59°55' E 010°44'0 0.0
2014-Oct-19 01:33N 59°55' E 010°44'0 0.0
2014-Oct-19 00:33N 59°55' E 010°44'0 0.0
2014-Oct-18 23:33N 59°55' E 010°44'0 0.0
2014-Oct-18 22:33N 59°55' E 010°44'0 0.0
2014-Oct-18 21:31N 59°55' E 010°44'0 0.1
2014-Oct-18 20:33N 59°55' E 010°44'0 0.0
2014-Oct-18 19:33N 59°55' E 010°44'0 0.0
2014-Oct-18 18:33N 59°55' E 010°44'0 0.1
2014-Oct-18 17:33N 59°55' E 010°44'0 0.1
2014-Oct-18 16:33N 59°55' E 010°44'0 0.1
2014-Oct-18 15:33N 59°55' E 010°44'0 0.1
2014-Oct-18 14:26N 59°55' E 010°44'0 0.0
2014-Oct-18 13:29N 59°55' E 010°44'0 0.0
2014-Oct-18 12:29N 59°55' E 010°44'0 0.0
2014-Oct-18 11:32N 59°55' E 010°44'0 0.0
2014-Oct-18 10:32N 59°55' E 010°44'0 0.0
2014-Oct-18 09:29N 59°55' E 010°44'0 0.0
2014-Oct-18 08:32N 59°55' E 010°44'0 0.0
2014-Oct-18 07:20N 59°55' E 010°44'0 0.0
2014-Oct-18 06:32N 59°55' E 010°44'0 0.0
2014-Oct-18 05:23N 59°55' E 010°44'0 0.0
2014-Oct-18 04:20N 59°55' E 010°44'0 0.0
2014-Oct-18 03:23N 59°55' E 010°44'0 0.0
2014-Oct-18 02:25N 59°55' E 010°44'0 0.0
2014-Oct-18 01:33N 59°55' E 010°44'0 0.0
2014-Oct-18 00:33N 59°55' E 010°44'0 0.0
2014-Oct-17 23:33N 59°55' E 010°44'0 0.0
2014-Oct-17 22:33N 59°55' E 010°44'0 0.0
2014-Oct-17 21:33N 59°55' E 010°44'0 0.0
2014-Oct-17 20:33N 59°55' E 010°44'0 0.0
2014-Oct-17 19:33N 59°55' E 010°44'0 0.0
2014-Oct-17 18:33N 59°55' E 010°44'2 1.8
2014-Oct-17 17:33N 59°53' E 010°41'1 1.1
2014-Oct-17 16:32N 59°53' E 010°40'0 0.3
2014-Oct-17 15:28N 59°52' E 010°39'2 2.3
2014-Oct-17 14:33N 59°54' E 010°42'1 1.1
2014-Oct-17 13:33N 59°55' E 010°44'0 0.0
2014-Oct-17 12:30N 59°55' E 010°44'0 0.0
2014-Oct-17 11:27N 59°55' E 010°44'0 0.0
2014-Oct-17 10:30N 59°55' E 010°44'0 0.0
2014-Oct-17 09:33N 59°55' E 010°44'0 0.0
2014-Oct-17 08:33N 59°55' E 010°44'0 0.0
2014-Oct-17 07:33N 59°55' E 010°44'2 2.2
2014-Oct-17 06:28N 59°53' E 010°40'1 1.0
2014-Oct-17 05:33N 59°52' E 010°39'0 0.2
2014-Oct-17 04:32N 59°52' E 010°40'0 0.2
2014-Oct-17 03:33N 59°53' E 010°40'0 0.4
2014-Oct-17 02:33N 59°52' E 010°39'0 0.0
2014-Oct-17 01:33N 59°52' E 010°39'0 0.0
2014-Oct-17 00:24N 59°52' E 010°39'0 0.0
2014-Oct-16 23:24N 59°52' E 010°39'0 0.0
2014-Oct-16 22:27N 59°52' E 010°39'0 0.0
2014-Oct-16 20:27N 59°52' E 010°39'0 0.0
2014-Oct-16 18:27N 59°52' E 010°39'0 0.0
2014-Oct-16 17:25N 59°52' E 010°39'0 0.5
2014-Oct-16 16:33N 59°53' E 010°40'0 0.0
2014-Oct-16 15:33N 59°53' E 010°40'1 1.4
2014-Oct-16 14:33N 59°54' E 010°42'1 1.4
2014-Oct-16 13:33N 59°55' E 010°44'0 0.0
2014-Oct-16 12:28N 59°55' E 010°44'0 0.0
2014-Oct-16 11:28N 59°55' E 010°44'0 0.0
2014-Oct-16 10:31N 59°55' E 010°44'0 0.0
2014-Oct-16 09:31N 59°55' E 010°44'0 0.0
2014-Oct-16 08:31N 59°55' E 010°44'0 0.0
2014-Oct-16 07:32N 59°55' E 010°44'3 3.0
2014-Oct-16 06:31N 59°52' E 010°40'0 0.0
2014-Oct-16 05:31N 59°52' E 010°40'0 0.2
2014-Oct-16 04:31N 59°52' E 010°39'0 0.3
2014-Oct-16 03:33N 59°53' E 010°40'0 0.0
2014-Oct-15 17:24N 59°52' E 010°39'1 0.6
2014-Oct-15 16:20N 59°53' E 010°40'0 0.2
2014-Oct-15 15:09N 59°53' E 010°40'1 1.9
2014-Oct-15 14:33N 59°54' E 010°42'1 0.3
2014-Oct-15 10:25N 59°55' E 010°44'0 0.0
2014-Oct-15 09:28N 59°55' E 010°44'0 0.0
2014-Oct-15 07:25N 59°55' E 010°44'3 3.7
2014-Oct-15 06:33N 59°52' E 010°39'0 0.5
2014-Oct-15 05:30N 59°53' E 010°40'0 0.2
2014-Oct-15 04:33N 59°53' E 010°40'0 0.0
2014-Oct-15 03:33N 59°53' E 010°40'0 0.1
2014-Oct-15 00:30N 59°52' E 010°39'0 0.0
2014-Oct-14 22:18N 59°52' E 010°39'0 0.0
2014-Oct-14 20:18N 59°52' E 010°39'0 0.0
2014-Oct-14 17:30N 59°52' E 010°39'0 0.0
2014-Oct-14 16:31N 59°52' E 010°39'0 0.4
2014-Oct-14 15:33N 59°53' E 010°40'2 1.7
2014-Oct-14 14:33N 59°54' E 010°42'1 1.2
2014-Oct-14 13:33N 59°55' E 010°44'0 0.0
2014-Oct-14 11:28N 59°55' E 010°44'0 0.0
2014-Oct-14 08:31N 59°55' E 010°44'0 0.0
2014-Oct-14 07:32N 59°55' E 010°44'2 2.3
2014-Oct-14 06:28N 59°53' E 010°40'0 0.1
2014-Oct-14 05:29N 59°53' E 010°40'1 0.7
2014-Oct-14 04:29N 59°52' E 010°39'0 0.0
2014-Oct-13 17:25N 59°52' E 010°40'1 0.5
2014-Oct-13 16:21N 59°53' E 010°40'1 0.5
2014-Oct-13 15:07N 59°53' E 010°41'1 1.1
2014-Oct-13 14:33N 59°54' E 010°42'  

Dump ship's entire track history